Beeson, West Virginia
Current Conditions -  °F | °C
As of 12:52 AM on Friday 19 Dec 2014 (Local Time) from KBLF Reporting Station
Overcast Overcast  
Wind Chill: 22°   Ceiling: 4800
Heat Index: 30°   Visibility: 10mi
Dew Point: 22°   Wind: 9mph
Humidity: 72%   Direction: 280°W
Pressure: 30.1"   Gusts: NA
Location:  37.48°N, 81.23°W
Report Text: KBLF 190552Z AUTO 28008KT 10SM OVC048 M01/M06 A3010 RMK AO2 SLP205 T10111056 10011 21011 51007
Loading
Personal Weather Stations






























Interactive Weather Map New forecast layout! Learn more

10-Day Weather Forecast

Advertisements
Track Severe Weather on mobile